sensor_id;sensor_type;location;lat;lon;timestamp;P1;durP1;ratioP1;P2;durP2;ratioP2
48574;SDS011;34352;51.084;3.712;2023-02-28T05:41:59;11.63;;;7.32;;
48574;SDS011;34352;51.084;3.712;2023-02-28T05:52:13;15.70;;;8.65;;
48574;SDS011;34352;51.084;3.712;2023-02-28T05:59:50;14.32;;;7.80;;
48574;SDS011;34352;51.084;3.712;2023-02-28T06:20:36;18.92;;;8.75;;
48574;SDS011;34352;51.084;3.712;2023-02-28T06:23:06;14.00;;;7.75;;
48574;SDS011;34352;51.084;3.712;2023-02-28T06:25:32;13.18;;;7.90;;
48574;SDS011;34352;51.084;3.712;2023-02-28T07:07:29;11.90;;;7.47;;
48574;SDS011;34352;51.084;3.712;2023-02-28T07:10:11;12.10;;;7.22;;
48574;SDS011;34352;51.084;3.712;2023-02-28T07:12:58;14.80;;;6.00;;
48574;SDS011;34352;51.084;3.712;2023-02-28T07:15:25;7.35;;;4.38;;
48574;SDS011;34352;51.084;3.712;2023-02-28T07:17:57;17.70;;;5.32;;
48574;SDS011;34352;51.084;3.712;2023-02-28T07:22:59;12.65;;;4.80;;
48574;SDS011;34352;51.084;3.712;2023-02-28T07:25:26;14.27;;;5.47;;
48574;SDS011;34352;51.084;3.712;2023-02-28T07:30:30;11.50;;;5.28;;
48574;SDS011;34352;51.084;3.712;2023-02-28T07:33:03;10.32;;;5.47;;
48574;SDS011;34352;51.084;3.712;2023-02-28T07:35:29;4.68;;;3.42;;
48574;SDS011;34352;51.084;3.712;2023-02-28T07:38:01;6.35;;;3.13;;
48574;SDS011;34352;51.084;3.712;2023-02-28T07:46:13;10.52;;;3.35;;
48574;SDS011;34352;51.084;3.712;2023-02-28T07:48:59;5.70;;;2.80;;
48574;SDS011;34352;51.084;3.712;2023-02-28T07:51:29;5.60;;;2.60;;
48574;SDS011;34352;51.084;3.712;2023-02-28T07:53:56;6.30;;;3.35;;
48574;SDS011;34352;51.084;3.712;2023-02-28T08:04:40;6.82;;;4.10;;
48574;SDS011;34352;51.084;3.712;2023-02-28T08:07:15;6.68;;;3.95;;
48574;SDS011;34352;51.084;3.712;2023-02-28T08:09:44;9.35;;;4.60;;
48574;SDS011;34352;51.084;3.712;2023-02-28T08:12:10;8.60;;;4.72;;
48574;SDS011;34352;51.084;3.712;2023-02-28T08:14:37;8.45;;;5.30;;
48574;SDS011;34352;51.084;3.712;2023-02-28T08:17:05;8.23;;;5.00;;
48574;SDS011;34352;51.084;3.712;2023-02-28T08:19:38;9.68;;;5.20;;
48574;SDS011;34352;51.084;3.712;2023-02-28T08:22:35;12.68;;;6.10;;
48574;SDS011;34352;51.084;3.712;2023-02-28T08:25:14;14.88;;;5.32;;
48574;SDS011;34352;51.084;3.712;2023-02-28T08:28:01;9.57;;;5.15;;
48574;SDS011;34352;51.084;3.712;2023-02-28T08:30:29;11.50;;;5.85;;
48574;SDS011;34352;51.084;3.712;2023-02-28T08:32:55;9.35;;;5.93;;
48574;SDS011;34352;51.084;3.712;2023-02-28T08:35:21;10.50;;;5.75;;
48574;SDS011;34352;51.084;3.712;2023-02-28T08:37:49;12.93;;;5.75;;
48574;SDS011;34352;51.084;3.712;2023-02-28T08:40:16;10.52;;;6.35;;
48574;SDS011;34352;51.084;3.712;2023-02-28T08:42:46;9.75;;;5.78;;
48574;SDS011;34352;51.084;3.712;2023-02-28T08:45:12;13.35;;;7.00;;
48574;SDS011;34352;51.084;3.712;2023-02-28T08:47:41;11.75;;;5.95;;
48574;SDS011;34352;51.084;3.712;2023-02-28T08:50:07;10.60;;;6.93;;
48574;SDS011;34352;51.084;3.712;2023-02-28T08:52:33;14.07;;;7.55;;
48574;SDS011;34352;51.084;3.712;2023-02-28T08:55:00;11.40;;;6.45;;
48574;SDS011;34352;51.084;3.712;2023-02-28T08:57:25;11.20;;;6.80;;
48574;SDS011;34352;51.084;3.712;2023-02-28T08:59:52;11.85;;;6.50;;
48574;SDS011;34352;51.084;3.712;2023-02-28T09:02:18;8.35;;;5.95;;
48574;SDS011;34352;51.084;3.712;2023-02-28T09:04:43;10.25;;;6.50;;
48574;SDS011;34352;51.084;3.712;2023-02-28T09:07:10;13.20;;;6.97;;
48574;SDS011;34352;51.084;3.712;2023-02-28T09:09:39;10.30;;;6.93;;
48574;SDS011;34352;51.084;3.712;2023-02-28T09:12:19;11.13;;;6.40;;
48574;SDS011;34352;51.084;3.712;2023-02-28T09:14:50;11.15;;;5.90;;
48574;SDS011;34352;51.084;3.712;2023-02-28T09:17:18;12.43;;;6.88;;
48574;SDS011;34352;51.084;3.712;2023-02-28T09:19:47;11.07;;;5.85;;
48574;SDS011;34352;51.084;3.712;2023-02-28T09:22:15;12.77;;;6.63;;
48574;SDS011;34352;51.084;3.712;2023-02-28T09:24:42;7.88;;;5.47;;
48574;SDS011;34352;51.084;3.712;2023-02-28T09:27:09;15.38;;;6.43;;
48574;SDS011;34352;51.084;3.712;2023-02-28T09:29:35;8.30;;;5.60;;
48574;SDS011;34352;51.084;3.712;2023-02-28T09:32:03;13.68;;;5.70;;
48574;SDS011;34352;51.084;3.712;2023-02-28T09:34:32;14.00;;;5.65;;
48574;SDS011;34352;51.084;3.712;2023-02-28T09:37:00;10.48;;;5.80;;
48574;SDS011;34352;51.084;3.712;2023-02-28T09:39:26;10.95;;;5.30;;
48574;SDS011;34352;51.084;3.712;2023-02-28T09:41:52;11.40;;;5.55;;
48574;SDS011;34352;51.084;3.712;2023-02-28T09:49:59;10.23;;;5.25;;
48574;SDS011;34352;51.084;3.712;2023-02-28T09:52:37;8.68;;;5.20;;
48574;SDS011;34352;51.084;3.712;2023-02-28T09:58:08;11.60;;;5.15;;
48574;SDS011;34352;51.084;3.712;2023-02-28T10:01:00;7.80;;;5.13;;
48574;SDS011;34352;51.084;3.712;2023-02-28T10:03:50;10.68;;;4.88;;
48574;SDS011;34352;51.084;3.712;2023-02-28T10:06:29;9.00;;;4.03;;
48574;SDS011;34352;51.084;3.712;2023-02-28T10:09:04;13.40;;;5.40;;
48574;SDS011;34352;51.084;3.712;2023-02-28T10:11:38;9.80;;;4.55;;
48574;SDS011;34352;51.084;3.712;2023-02-28T10:16:46;8.00;;;3.83;;
48574;SDS011;34352;51.084;3.712;2023-02-28T10:19:35;8.90;;;4.25;;
48574;SDS011;34352;51.084;3.712;2023-02-28T10:28:00;9.55;;;4.13;;
48574;SDS011;34352;51.084;3.712;2023-02-28T10:30:33;6.97;;;3.60;;
48574;SDS011;34352;51.084;3.712;2023-02-28T10:32:59;7.97;;;3.90;;
48574;SDS011;34352;51.084;3.712;2023-02-28T10:35:26;8.65;;;3.70;;
48574;SDS011;34352;51.084;3.712;2023-02-28T10:43:42;8.25;;;3.42;;
48574;SDS011;34352;51.084;3.712;2023-02-28T10:46:13;8.57;;;3.67;;
48574;SDS011;34352;51.084;3.712;2023-02-28T10:48:59;5.20;;;3.42;;
48574;SDS011;34352;51.084;3.712;2023-02-28T10:51:34;6.53;;;2.90;;
48574;SDS011;34352;51.084;3.712;2023-02-28T10:54:16;4.50;;;2.90;;
48574;SDS011;34352;51.084;3.712;2023-02-28T10:59:44;6.75;;;3.22;;
48574;SDS011;34352;51.084;3.712;2023-02-28T11:07:55;8.05;;;2.95;;
48574;SDS011;34352;51.084;3.712;2023-02-28T11:10:38;8.48;;;3.58;;
48574;SDS011;34352;51.084;3.712;2023-02-28T11:13:13;5.60;;;3.05;;
48574;SDS011;34352;51.084;3.712;2023-02-28T11:15:55;4.78;;;3.28;;
48574;SDS011;34352;51.084;3.712;2023-02-28T11:21:02;3.58;;;3.00;;
48574;SDS011;34352;51.084;3.712;2023-02-28T11:23:30;5.68;;;3.30;;
48574;SDS011;34352;51.084;3.712;2023-02-28T11:26:00;5.28;;;3.58;;
48574;SDS011;34352;51.084;3.712;2023-02-28T11:28:29;7.38;;;3.67;;
48574;SDS011;34352;51.084;3.712;2023-02-28T11:33:47;6.55;;;3.22;;
48574;SDS011;34352;51.084;3.712;2023-02-28T11:36:20;3.42;;;3.08;;
48574;SDS011;34352;51.084;3.712;2023-02-28T11:38:48;4.38;;;3.33;;
48574;SDS011;34352;51.084;3.712;2023-02-28T11:41:35;4.47;;;3.33;;
48574;SDS011;34352;51.084;3.712;2023-02-28T11:53:05;6.53;;;3.60;;
48574;SDS011;34352;51.084;3.712;2023-02-28T15:18:33;12.05;;;4.15;;
48574;SDS011;34352;51.084;3.712;2023-02-28T15:26:51;4.63;;;3.67;;
48574;SDS011;34352;51.084;3.712;2023-02-28T15:37:47;5.68;;;4.15;;
48574;SDS011;34352;51.084;3.712;2023-02-28T16:50:19;5.53;;;3.95;;
48574;SDS011;34352;51.084;3.712;2023-02-28T16:59:02;8.57;;;4.65;;
48574;SDS011;34352;51.084;3.712;2023-02-28T17:01:30;6.72;;;4.00;;
48574;SDS011;34352;51.084;3.712;2023-02-28T17:03:59;6.72;;;4.70;;
48574;SDS011;34352;51.084;3.712;2023-02-28T17:06:29;7.13;;;4.82;;
48574;SDS011;34352;51.084;3.712;2023-02-28T17:20:04;8.25;;;5.93;;
48574;SDS011;34352;51.084;3.712;2023-02-28T17:25:08;8.00;;;5.82;;
48574;SDS011;34352;51.084;3.712;2023-02-28T17:33:15;7.85;;;5.88;;
48574;SDS011;34352;51.084;3.712;2023-02-28T17:36:05;8.73;;;5.88;;
48574;SDS011;34352;51.084;3.712;2023-02-28T17:59:24;11.93;;;5.85;;
48574;SDS011;34352;51.084;3.712;2023-02-28T18:02:06;8.82;;;5.82;;
48574;SDS011;34352;51.084;3.712;2023-02-28T18:07:09;15.00;;;6.68;;
48574;SDS011;34352;51.084;3.712;2023-02-28T18:09:37;11.88;;;5.90;;
48574;SDS011;34352;51.084;3.712;2023-02-28T18:12:04;11.48;;;5.93;;
48574;SDS011;34352;51.084;3.712;2023-02-28T18:14:30;10.93;;;6.10;;
48574;SDS011;34352;51.084;3.712;2023-02-28T18:16:56;11.55;;;5.88;;
48574;SDS011;34352;51.084;3.712;2023-02-28T18:19:23;9.75;;;5.88;;
48574;SDS011;34352;51.084;3.712;2023-02-28T18:25:11;9.52;;;5.80;;
48574;SDS011;34352;51.084;3.712;2023-02-28T18:27:41;8.48;;;6.32;;
48574;SDS011;34352;51.084;3.712;2023-02-28T18:30:28;8.20;;;5.80;;
